Time;durP1;ratioP1;P1;durP2;ratioP2;P2;SDS_P1;SDS_P2;PMS_P1;PMS_P2;Temp;Humidity;BMP_temperature;BMP_pressure;BME280_temperature;BME280_humidity;BME280_pressure;Samples;Min_cycle;Max_cycle;Signal;HPM_P1;HPM_P2
2021/09/05 00:00:04;;;;;;;13.10;9.87;;;;;;;;;;4995408;28;20400;-74
2021/09/05 00:02:30;;;;;;;13.90;10.40;;;;;;;;;;4998716;28;20956;-75
2021/09/05 00:04:56;;;;;;;14.43;9.87;;;;;;;;;;4995383;28;20436;-74
2021/09/05 00:07:22;;;;;;;16.90;10.27;;;;;;;;;;5003505;28;20467;-75
2021/09/05 00:09:48;;;;;;;11.70;10.00;;;;;;;;;;5014719;28;20455;-75
2021/09/05 00:12:14;;;;;;;15.53;10.13;;;;;;;;;;5014325;28;20537;-75
2021/09/05 00:14:40;;;;;;;13.23;9.53;;;;;;;;;;5014660;28;20404;-75
2021/09/05 00:17:06;;;;;;;18.63;10.13;;;;;;;;;;5013705;28;20434;-75
2021/09/05 00:19:32;;;;;;;12.70;9.90;;;;;;;;;;5013217;28;20915;-75
2021/09/05 00:21:58;;;;;;;14.77;10.60;;;;;;;;;;5009472;28;20478;-75
2021/09/05 00:24:24;;;;;;;19.07;12.00;;;;;;;;;;4994929;28;20420;-74
2021/09/05 00:26:51;;;;;;;15.50;10.83;;;;;;;;;;4997328;28;20490;-75
2021/09/05 00:29:17;;;;;;;14.97;9.77;;;;;;;;;;5014402;28;20538;-75
2021/09/05 00:31:44;;;;;;;13.90;10.90;;;;;;;;;;5007970;28;20435;-74
2021/09/05 00:34:10;;;;;;;13.80;9.60;;;;;;;;;;5014624;28;20428;-75
2021/09/05 00:36:36;;;;;;;12.83;9.40;;;;;;;;;;5013019;28;20404;-75
2021/09/05 00:39:04;;;;;;;16.40;9.40;;;;;;;;;;4994697;28;20405;-75
2021/09/05 00:41:30;;;;;;;9.03;7.50;;;;;;;;;;4994564;28;20413;-75
2021/09/05 00:43:57;;;;;;;12.90;8.03;;;;;;;;;;4994508;28;20416;-75
2021/09/05 00:46:24;;;;;;;9.27;6.77;;;;;;;;;;4994509;28;20419;-75
2021/09/05 00:48:50;;;;;;;11.17;7.87;;;;;;;;;;5012956;28;20834;-75
2021/09/05 00:51:16;;;;;;;14.07;8.80;;;;;;;;;;5014079;28;20415;-74
2021/09/05 00:53:42;;;;;;;12.27;7.83;;;;;;;;;;5012838;28;20459;-74
2021/09/05 00:56:09;;;;;;;13.03;8.80;;;;;;;;;;5014182;28;20404;-74
2021/09/05 00:58:36;;;;;;;13.07;9.67;;;;;;;;;;5013399;28;20423;-74
2021/09/05 01:01:02;;;;;;;10.33;7.53;;;;;;;;;;4996316;28;20407;-74
2021/09/05 01:03:28;;;;;;;12.93;7.57;;;;;;;;;;5002928;28;20514;-73
2021/09/05 01:05:54;;;;;;;11.50;7.67;;;;;;;;;;4996036;28;20427;-74
2021/09/05 01:08:20;;;;;;;13.33;8.13;;;;;;;;;;5005513;28;20436;-73
2021/09/05 01:10:46;;;;;;;9.93;6.87;;;;;;;;;;5007744;28;20431;-74
2021/09/05 01:13:12;;;;;;;11.90;7.60;;;;;;;;;;5013606;28;20420;-74
2021/09/05 01:15:38;;;;;;;12.77;7.60;;;;;;;;;;5012913;28;21002;-73
2021/09/05 01:18:04;;;;;;;14.00;8.53;;;;;;;;;;5013793;28;20403;-74
2021/09/05 01:20:30;;;;;;;11.13;9.07;;;;;;;;;;5012503;28;20804;-74
2021/09/05 01:22:56;;;;;;;10.53;7.57;;;;;;;;;;5013654;28;20836;-74
2021/09/05 01:25:22;;;;;;;10.93;7.50;;;;;;;;;;5003541;28;20468;-73
2021/09/05 01:27:48;;;;;;;11.00;7.00;;;;;;;;;;4993880;28;20767;-74
2021/09/05 01:30:14;;;;;;;11.00;8.10;;;;;;;;;;5001745;28;20471;-73
2021/09/05 01:32:40;;;;;;;8.10;6.43;;;;;;;;;;5013562;28;20794;-74
2021/09/05 01:35:07;;;;;;;7.93;6.17;;;;;;;;;;5005998;28;20436;-74
2021/09/05 01:37:33;;;;;;;12.50;7.50;;;;;;;;;;4993564;28;20775;-73
2021/09/05 01:39:59;;;;;;;8.83;6.97;;;;;;;;;;4993730;28;20432;-73
2021/09/05 01:42:25;;;;;;;9.70;7.73;;;;;;;;;;4994054;28;20902;-73
2021/09/05 01:44:51;;;;;;;13.03;8.87;;;;;;;;;;4993750;28;20777;-74
2021/09/05 01:47:17;;;;;;;9.53;6.97;;;;;;;;;;4993716;28;20527;-73
2021/09/05 01:49:43;;;;;;;9.53;6.60;;;;;;;;;;4995607;28;20464;-73
2021/09/05 01:52:09;;;;;;;11.20;7.33;;;;;;;;;;5012989;28;20447;-74
2021/09/05 01:54:35;;;;;;;10.57;8.43;;;;;;;;;;5010616;28;20414;-73
2021/09/05 01:57:01;;;;;;;9.77;7.40;;;;;;;;;;4993528;28;20436;-74
2021/09/05 01:59:27;;;;;;;12.27;9.17;;;;;;;;;;4993767;28;20471;-73
2021/09/05 02:01:53;;;;;;;12.67;7.07;;;;;;;;;;4994218;28;20538;-74
2021/09/05 02:04:19;;;;;;;12.40;8.00;;;;;;;;;;5013150;28;20408;-74
2021/09/05 02:06:45;;;;;;;8.60;7.20;;;;;;;;;;5012414;28;20439;-74
2021/09/05 02:09:11;;;;;;;9.70;7.03;;;;;;;;;;5012996;28;20451;-74
2021/09/05 02:11:37;;;;;;;10.53;7.10;;;;;;;;;;5000458;28;20433;-73
2021/09/05 02:14:04;;;;;;;14.63;8.70;;;;;;;;;;4993717;28;20414;-73
2021/09/05 02:16:30;;;;;;;9.90;7.50;;;;;;;;;;5009532;28;20424;-73
2021/09/05 02:18:56;;;;;;;8.67;7.50;;;;;;;;;;5013131;28;20461;-74
2021/09/05 02:21:22;;;;;;;9.43;7.40;;;;;;;;;;5011737;28;20435;-73
2021/09/05 02:23:48;;;;;;;11.03;7.03;;;;;;;;;;5013031;28;20967;-74
2021/09/05 02:26:14;;;;;;;10.30;7.33;;;;;;;;;;5010620;28;20463;-73
2021/09/05 02:28:40;;;;;;;8.77;6.97;;;;;;;;;;5012890;28;20463;-74
2021/09/05 02:31:06;;;;;;;11.37;7.53;;;;;;;;;;5012451;28;20434;-73
2021/09/05 02:33:32;;;;;;;9.50;7.47;;;;;;;;;;5012796;28;20431;-74
2021/09/05 02:35:58;;;;;;;8.10;6.10;;;;;;;;;;5000590;28;20460;-73
2021/09/05 02:38:24;;;;;;;8.87;6.53;;;;;;;;;;4994694;28;20463;-73
2021/09/05 02:40:50;;;;;;;10.50;7.57;;;;;;;;;;4993966;28;20424;-73
2021/09/05 02:43:16;;;;;;;8.50;6.80;;;;;;;;;;4993321;28;20425;-73
2021/09/05 02:45:42;;;;;;;9.60;6.43;;;;;;;;;;5005326;28;20423;-73
2021/09/05 02:48:08;;;;;;;10.83;6.60;;;;;;;;;;5012923;28;20414;-73
2021/09/05 02:50:34;;;;;;;9.87;6.80;;;;;;;;;;5007404;28;20826;-73
2021/09/05 02:53:00;;;;;;;11.53;7.70;;;;;;;;;;5015962;28;20944;-73
2021/09/05 02:55:26;;;;;;;10.80;6.90;;;;;;;;;;5009462;28;20849;-73
2021/09/05 02:57:52;;;;;;;10.20;7.10;;;;;;;;;;4996607;28;20836;-73
2021/09/05 03:00:18;;;;;;;9.20;7.40;;;;;;;;;;5001222;28;20489;-74
2021/09/05 03:02:44;;;;;;;9.83;7.50;;;;;;;;;;5015941;28;20427;-73
2021/09/05 03:05:10;;;;;;;10.30;7.47;;;;;;;;;;5015106;28;20438;-73
2021/09/05 03:07:36;;;;;;;7.70;6.33;;;;;;;;;;5014709;28;20467;-73
2021/09/05 03:10:03;;;;;;;10.30;7.60;;;;;;;;;;5014650;28;20523;-73
2021/09/05 03:12:29;;;;;;;12.13;7.83;;;;;;;;;;5015864;28;20942;-73
2021/09/05 03:14:55;;;;;;;10.10;6.80;;;;;;;;;;5014317;28;20869;-73
2021/09/05 03:17:21;;;;;;;8.97;6.50;;;;;;;;;;5016026;28;20396;-73
2021/09/05 03:19:47;;;;;;;8.00;6.40;;;;;;;;;;5014874;28;20407;-73
2021/09/05 03:22:13;;;;;;;9.80;7.80;;;;;;;;;;5015438;28;20939;-73
2021/09/05 03:24:39;;;;;;;9.70;7.13;;;;;;;;;;5010815;28;20443;-73
2021/09/05 03:27:05;;;;;;;11.97;8.23;;;;;;;;;;5014458;28;20431;-73
2021/09/05 03:29:31;;;;;;;12.73;8.80;;;;;;;;;;5015597;28;20454;-72
2021/09/05 03:31:57;;;;;;;12.03;8.13;;;;;;;;;;5012080;28;20874;-72
2021/09/05 03:34:23;;;;;;;11.17;8.07;;;;;;;;;;4998237;28;20416;-73
2021/09/05 03:36:49;;;;;;;9.53;7.73;;;;;;;;;;5011733;28;20423;-73
2021/09/05 03:39:15;;;;;;;11.03;7.20;;;;;;;;;;5015693;28;20403;-73
2021/09/05 03:41:41;;;;;;;9.60;7.30;;;;;;;;;;5012889;28;20928;-73
2021/09/05 03:44:07;;;;;;;7.90;5.77;;;;;;;;;;5015329;28;20461;-73
2021/09/05 03:46:33;;;;;;;12.13;7.97;;;;;;;;;;5014513;28;20427;-73
2021/09/05 03:48:59;;;;;;;9.07;7.80;;;;;;;;;;5015073;28;20537;-73
2021/09/05 03:51:25;;;;;;;9.57;6.87;;;;;;;;;;5014107;28;20427;-73
2021/09/05 03:53:51;;;;;;;12.00;7.13;;;;;;;;;;5015389;28;20412;-73
2021/09/05 03:56:18;;;;;;;9.20;7.73;;;;;;;;;;4995782;28;20455;-73
2021/09/05 03:58:44;;;;;;;10.43;7.60;;;;;;;;;;5015034;28;20400;-73
2021/09/05 04:01:10;;;;;;;11.10;6.33;;;;;;;;;;5005658;28;20475;-73
2021/09/05 04:03:36;;;;;;;12.10;8.03;;;;;;;;;;4995315;28;20795;-73
2021/09/05 04:06:03;;;;;;;10.17;7.80;;;;;;;;;;5002143;28;20469;-73
2021/09/05 04:08:30;;;;;;;13.10;8.33;;;;;;;;;;5014891;28;20478;-73
2021/09/05 04:10:57;;;;;;;9.17;5.90;;;;;;;;;;5008149;28;20555;-73
2021/09/05 04:13:23;;;;;;;10.30;7.33;;;;;;;;;;4995339;28;20767;-73
2021/09/05 04:15:49;;;;;;;13.20;7.00;;;;;;;;;;5013359;28;20442;-73
2021/09/05 04:18:15;;;;;;;9.10;7.07;;;;;;;;;;5014953;28;20499;-73
2021/09/05 04:20:41;;;;;;;10.53;7.10;;;;;;;;;;5013574;28;20428;-73
2021/09/05 04:23:07;;;;;;;9.83;7.43;;;;;;;;;;5014511;28;20432;-73
2021/09/05 04:25:33;;;;;;;10.30;7.40;;;;;;;;;;5013134;28;20826;-73
2021/09/05 04:27:59;;;;;;;8.90;7.17;;;;;;;;;;4996593;28;20471;-74
2021/09/05 04:30:25;;;;;;;11.70;8.53;;;;;;;;;;4995189;28;20900;-75
2021/09/05 04:32:51;;;;;;;11.70;7.60;;;;;;;;;;4994809;28;20432;-72
2021/09/05 04:35:17;;;;;;;12.03;8.93;;;;;;;;;;4995072;28;20778;-72
2021/09/05 04:37:44;;;;;;;9.57;6.93;;;;;;;;;;5013290;28;20518;-73
2021/09/05 04:40:10;;;;;;;12.27;7.80;;;;;;;;;;5014341;28;20424;-73
2021/09/05 04:42:36;;;;;;;11.13;7.77;;;;;;;;;;4995968;28;20450;-72
2021/09/05 04:45:03;;;;;;;11.00;8.53;;;;;;;;;;4994592;28;20447;-72
2021/09/05 04:47:29;;;;;;;11.97;7.90;;;;;;;;;;5000992;28;20828;-72
2021/09/05 04:49:55;;;;;;;11.20;7.50;;;;;;;;;;5013167;28;20471;-73
2021/09/05 04:52:21;;;;;;;13.43;8.77;;;;;;;;;;5013141;28;20931;-73
2021/09/05 04:54:47;;;;;;;9.40;7.43;;;;;;;;;;5014090;28;20881;-73
2021/09/05 04:57:13;;;;;;;10.30;7.97;;;;;;;;;;5013486;28;20434;-73
2021/09/05 04:59:39;;;;;;;13.40;7.10;;;;;;;;;;5014055;28;20408;-73
2021/09/05 05:02:05;;;;;;;8.97;6.70;;;;;;;;;;5013004;28;20826;-72
2021/09/05 05:04:31;;;;;;;12.70;8.97;;;;;;;;;;5011939;28;20433;-73
2021/09/05 05:06:57;;;;;;;14.27;8.33;;;;;;;;;;5002114;28;20482;-73
2021/09/05 05:09:23;;;;;;;10.10;8.73;;;;;;;;;;4994317;28;20460;-73
2021/09/05 05:11:49;;;;;;;9.57;7.70;;;;;;;;;;5003399;28;20447;-73
2021/09/05 05:14:15;;;;;;;12.10;7.80;;;;;;;;;;4994976;28;20486;-73
2021/09/05 05:16:41;;;;;;;13.93;8.27;;;;;;;;;;5002519;28;20427;-73
2021/09/05 05:19:07;;;;;;;10.60;7.10;;;;;;;;;;5013643;28;20411;-73
2021/09/05 05:21:33;;;;;;;10.03;7.67;;;;;;;;;;5008282;28;20511;-74
2021/09/05 05:23:59;;;;;;;9.83;8.10;;;;;;;;;;4994229;28;20408;-73
2021/09/05 05:26:26;;;;;;;10.83;7.77;;;;;;;;;;4993931;28;20483;-73
2021/09/05 05:28:52;;;;;;;9.23;7.33;;;;;;;;;;4993944;28;20452;-73
2021/09/05 05:31:19;;;;;;;10.50;7.60;;;;;;;;;;4993601;28;20436;-73
2021/09/05 05:33:45;;;;;;;9.13;6.90;;;;;;;;;;4994195;28;20499;-73
2021/09/05 05:36:11;;;;;;;8.60;6.70;;;;;;;;;;4997763;28;20424;-73
2021/09/05 05:38:37;;;;;;;10.73;8.20;;;;;;;;;;5013477;28;20404;-74
2021/09/05 05:41:04;;;;;;;11.00;6.63;;;;;;;;;;5010148;28;20590;-74
2021/09/05 05:43:30;;;;;;;9.87;7.13;;;;;;;;;;4993910;28;20455;-74
2021/09/05 05:45:56;;;;;;;10.70;8.03;;;;;;;;;;4995100;28;20397;-74
2021/09/05 05:48:22;;;;;;;11.80;8.03;;;;;;;;;;5013533;28;20482;-74
2021/09/05 05:50:48;;;;;;;11.57;7.87;;;;;;;;;;5012535;28;20951;-74
2021/09/05 05:53:15;;;;;;;10.90;7.37;;;;;;;;;;4993860;28;20523;-74
2021/09/05 05:55:41;;;;;;;9.17;7.50;;;;;;;;;;5000940;28;20466;-74
2021/09/05 05:58:07;;;;;;;15.83;7.57;;;;;;;;;;5012008;28;20419;-74
2021/09/05 06:00:35;;;;;;;9.67;7.47;;;;;;;;;;5013263;28;20996;-74
2021/09/05 06:03:01;;;;;;;9.00;6.70;;;;;;;;;;4994316;28;20490;-74
2021/09/05 06:05:28;;;;;;;11.40;7.57;;;;;;;;;;4993501;28;20404;-74
2021/09/05 06:07:54;;;;;;;9.53;6.97;;;;;;;;;;5009911;28;20796;-74
2021/09/05 06:10:20;;;;;;;9.43;7.63;;;;;;;;;;5012961;28;20455;-74
2021/09/05 06:12:46;;;;;;;8.80;7.00;;;;;;;;;;4996910;28;20510;-74
2021/09/05 06:15:12;;;;;;;9.00;7.07;;;;;;;;;;4993709;28;20447;-74
2021/09/05 06:17:38;;;;;;;11.00;6.73;;;;;;;;;;5007370;28;20427;-74
2021/09/05 06:20:06;;;;;;;7.87;5.97;;;;;;;;;;5013231;28;20435;-74
2021/09/05 06:22:32;;;;;;;7.13;5.77;;;;;;;;;;5006272;28;20834;-74
2021/09/05 06:24:58;;;;;;;8.83;6.00;;;;;;;;;;4995835;28;20455;-74
2021/09/05 06:27:24;;;;;;;12.33;6.40;;;;;;;;;;4997194;28;20436;-74
2021/09/05 06:29:50;;;;;;;10.13;6.87;;;;;;;;;;5004334;28;20466;-74
2021/09/05 06:32:16;;;;;;;9.40;6.87;;;;;;;;;;5015623;28;20534;-74
2021/09/05 06:34:42;;;;;;;8.27;6.60;;;;;;;;;;5016628;28;20392;-74
2021/09/05 06:37:08;;;;;;;9.83;6.20;;;;;;;;;;5006613;28;20433;-74
2021/09/05 06:39:34;;;;;;;7.80;6.47;;;;;;;;;;4996988;28;20400;-74
2021/09/05 06:42:00;;;;;;;9.37;7.43;;;;;;;;;;5004664;28;20456;-74
2021/09/05 06:44:26;;;;;;;7.60;6.73;;;;;;;;;;5016697;28;20403;-74
2021/09/05 06:46:52;;;;;;;10.27;7.00;;;;;;;;;;5015533;28;20459;-74
2021/09/05 06:49:18;;;;;;;11.47;7.53;;;;;;;;;;5016240;28;20451;-74
2021/09/05 06:51:44;;;;;;;7.70;6.23;;;;;;;;;;5010424;28;20443;-74
2021/09/05 06:54:10;;;;;;;11.80;7.23;;;;;;;;;;4997377;28;20905;-74
2021/09/05 06:56:36;;;;;;;10.03;7.27;;;;;;;;;;4996967;28;20433;-74
2021/09/05 06:59:02;;;;;;;9.97;6.50;;;;;;;;;;4996669;28;20829;-74
2021/09/05 07:01:28;;;;;;;12.23;7.40;;;;;;;;;;4996702;28;20790;-74
2021/09/05 07:03:54;;;;;;;9.13;8.03;;;;;;;;;;5005343;28;20894;-74
2021/09/05 07:06:20;;;;;;;11.37;7.80;;;;;;;;;;5013951;28;20901;-74
2021/09/05 07:08:46;;;;;;;14.53;7.60;;;;;;;;;;4996284;28;20528;-74
2021/09/05 07:11:12;;;;;;;8.97;6.37;;;;;;;;;;4996534;28;20412;-74
2021/09/05 07:13:38;;;;;;;11.53;6.60;;;;;;;;;;4998196;28;20427;-74
2021/09/05 07:16:04;;;;;;;9.20;6.37;;;;;;;;;;5015976;28;20836;-75
2021/09/05 07:18:30;;;;;;;9.07;6.20;;;;;;;;;;5014852;28;20419;-74
2021/09/05 07:20:56;;;;;;;8.33;6.03;;;;;;;;;;5015779;28;20399;-74
2021/09/05 07:23:22;;;;;;;10.30;6.63;;;;;;;;;;5014518;28;20891;-74
2021/09/05 07:25:48;;;;;;;10.30;6.70;;;;;;;;;;5016083;28;20426;-74
2021/09/05 07:28:14;;;;;;;6.30;5.23;;;;;;;;;;4999060;28;20443;-74
2021/09/05 07:30:40;;;;;;;9.27;6.87;;;;;;;;;;4999053;28;20455;-74
2021/09/05 07:33:06;;;;;;;9.37;6.50;;;;;;;;;;5013915;28;20462;-74
2021/09/05 07:35:32;;;;;;;7.10;5.60;;;;;;;;;;5015120;28;20415;-74
2021/09/05 07:37:58;;;;;;;12.80;6.63;;;;;;;;;;5013061;28;20901;-74
2021/09/05 07:40:25;;;;;;;8.60;6.40;;;;;;;;;;5015307;28;20408;-74
2021/09/05 07:42:51;;;;;;;10.33;6.33;;;;;;;;;;5012570;28;20537;-74
2021/09/05 07:45:17;;;;;;;8.33;6.73;;;;;;;;;;5013713;28;20411;-74
2021/09/05 07:47:43;;;;;;;8.80;6.30;;;;;;;;;;5012990;28;20427;-71
2021/09/05 07:50:09;;;;;;;8.80;6.90;;;;;;;;;;5014497;28;20537;-72
2021/09/05 07:52:35;;;;;;;8.53;6.73;;;;;;;;;;5008882;28;20796;-71
2021/09/05 07:55:01;;;;;;;9.73;6.87;;;;;;;;;;5013615;28;20416;-71
2021/09/05 07:57:27;;;;;;;9.13;6.57;;;;;;;;;;5009141;28;20427;-71
2021/09/05 07:59:53;;;;;;;8.80;6.73;;;;;;;;;;5015203;28;20793;-71
2021/09/05 08:02:19;;;;;;;9.10;6.27;;;;;;;;;;5014080;28;20963;-71
2021/09/05 08:04:45;;;;;;;8.90;6.40;;;;;;;;;;5015152;28;20411;-71
2021/09/05 08:07:12;;;;;;;8.90;6.73;;;;;;;;;;5012639;28;20404;-71
2021/09/05 08:09:38;;;;;;;11.17;7.13;;;;;;;;;;4995484;28;20586;-71
2021/09/05 08:12:04;;;;;;;8.00;5.90;;;;;;;;;;4995252;28;20500;-71
2021/09/05 08:14:30;;;;;;;8.40;7.07;;;;;;;;;;5014448;28;20415;-71
2021/09/05 08:16:56;;;;;;;9.00;6.50;;;;;;;;;;5014875;28;20498;-71
2021/09/05 08:19:22;;;;;;;10.63;6.57;;;;;;;;;;4995105;28;20631;-71
2021/09/05 08:21:48;;;;;;;9.67;6.63;;;;;;;;;;4994857;28;20428;-71
2021/09/05 08:24:14;;;;;;;7.57;6.07;;;;;;;;;;4995037;28;20456;-71
2021/09/05 08:26:40;;;;;;;8.00;6.20;;;;;;;;;;4994901;28;20401;-71
2021/09/05 08:29:08;;;;;;;8.67;6.80;;;;;;;;;;5010708;28;20477;-72
2021/09/05 08:31:34;;;;;;;8.00;6.20;;;;;;;;;;5014291;28;20959;-71
2021/09/05 08:34:00;;;;;;;8.60;6.13;;;;;;;;;;5012771;28;20424;-71
2021/09/05 08:36:26;;;;;;;10.63;6.80;;;;;;;;;;5014426;28;20491;-71
2021/09/05 08:38:52;;;;;;;8.87;6.13;;;;;;;;;;5013042;28;20425;-70
2021/09/05 08:41:18;;;;;;;9.00;6.63;;;;;;;;;;5014172;28;20410;-70
2021/09/05 08:43:45;;;;;;;11.70;6.97;;;;;;;;;;5000284;28;20626;-70
2021/09/05 08:46:11;;;;;;;8.67;5.23;;;;;;;;;;4993995;28;20788;-70
2021/09/05 08:48:38;;;;;;;11.50;7.13;;;;;;;;;;4988059;28;20463;-71
2021/09/05 08:51:04;;;;;;;10.07;6.47;;;;;;;;;;5014320;28;20400;-71
2021/09/05 08:53:31;;;;;;;9.80;7.17;;;;;;;;;;5008183;28;20479;-70
2021/09/05 08:55:57;;;;;;;8.37;6.53;;;;;;;;;;5013936;28;20407;-71
2021/09/05 08:58:23;;;;;;;10.67;6.30;;;;;;;;;;5013107;28;20424;-71
2021/09/05 09:00:49;;;;;;;8.57;6.60;;;;;;;;;;5014052;28;20489;-71
2021/09/05 09:03:22;;;;;;;10.03;6.83;;;;;;;;;;5012824;28;20927;-71
2021/09/05 09:05:56;;;;;;;13.53;6.20;;;;;;;;;;5012942;28;20458;-71
2021/09/05 09:08:23;;;;;;;8.77;5.50;;;;;;;;;;5013058;28;21006;-71
2021/09/05 09:10:52;;;;;;;9.00;5.57;;;;;;;;;;5013714;28;20986;-71
2021/09/05 09:13:36;;;;;;;7.87;6.47;;;;;;;;;;5013020;28;20447;-71
2021/09/05 09:16:06;;;;;;;7.60;5.03;;;;;;;;;;5013775;28;20415;-71
2021/09/05 09:18:32;;;;;;;9.37;6.43;;;;;;;;;;5003826;28;20431;-71
2021/09/05 09:21:00;;;;;;;8.00;5.70;;;;;;;;;;4993937;28;20548;-71
2021/09/05 09:23:27;;;;;;;9.90;5.93;;;;;;;;;;5002371;28;20914;-71
2021/09/05 09:25:59;;;;;;;8.40;6.60;;;;;;;;;;5012418;28;20541;-71
2021/09/05 09:28:36;;;;;;;7.63;5.47;;;;;;;;;;5004487;28;20933;-71
2021/09/05 09:31:22;;;;;;;10.10;6.57;;;;;;;;;;4993985;28;20440;-71
2021/09/05 09:33:52;;;;;;;7.03;5.53;;;;;;;;;;5004557;28;20990;-71
2021/09/05 09:36:20;;;;;;;7.50;6.50;;;;;;;;;;5013718;28;20426;-72
2021/09/05 09:38:53;;;;;;;8.63;6.20;;;;;;;;;;5012579;28;21002;-71
2021/09/05 09:41:19;;;;;;;9.67;6.17;;;;;;;;;;5013335;28;20877;-72
2021/09/05 09:43:51;;;;;;;7.67;5.93;;;;;;;;;;4994261;28;20452;-72
2021/09/05 09:46:18;;;;;;;7.47;5.57;;;;;;;;;;5013279;28;20490;-72
2021/09/05 09:48:45;;;;;;;6.93;5.27;;;;;;;;;;5012307;28;20598;-72
2021/09/05 09:51:11;;;;;;;7.40;4.83;;;;;;;;;;5013282;28;20404;-72
2021/09/05 09:53:39;;;;;;;6.90;5.70;;;;;;;;;;5010940;28;20463;-70
2021/09/05 09:56:06;;;;;;;7.10;5.50;;;;;;;;;;5013410;28;20451;-70
2021/09/05 09:58:32;;;;;;;8.17;6.80;;;;;;;;;;5014144;28;20936;-69
2021/09/05 10:00:58;;;;;;;8.97;5.90;;;;;;;;;;5016134;28;20435;-69
2021/09/05 10:03:26;;;;;;;6.87;4.50;;;;;;;;;;5014883;28;20472;-71
2021/09/05 10:05:53;;;;;;;7.60;5.67;;;;;;;;;;5017066;28;20411;-67
2021/09/05 10:08:20;;;;;;;6.60;4.77;;;;;;;;;;5016478;28;20490;-66
2021/09/05 10:10:47;;;;;;;10.03;5.20;;;;;;;;;;4997606;28;20814;-66
2021/09/05 10:13:13;;;;;;;8.03;5.80;;;;;;;;;;4997413;28;20431;-67
2021/09/05 10:15:39;;;;;;;6.77;5.23;;;;;;;;;;5015999;28;20423;-66
2021/09/05 10:18:06;;;;;;;6.83;5.80;;;;;;;;;;5017022;28;20439;-67
2021/09/05 10:20:33;;;;;;;9.00;5.23;;;;;;;;;;5015172;28;20459;-66
2021/09/05 10:23:02;;;;;;;7.97;5.70;;;;;;;;;;5017203;28;20438;-66
2021/09/05 10:25:28;;;;;;;8.30;5.90;;;;;;;;;;5016042;28;20506;-66
2021/09/05 10:27:54;;;;;;;6.80;5.80;;;;;;;;;;5016784;28;20438;-66
2021/09/05 10:30:24;;;;;;;7.90;5.80;;;;;;;;;;5015706;28;20910;-67
2021/09/05 10:32:57;;;;;;;5.93;5.00;;;;;;;;;;5016633;28;20481;-66
2021/09/05 10:35:26;;;;;;;8.13;4.90;;;;;;;;;;5014531;28;20423;-66
2021/09/05 10:38:11;;;;;;;8.00;5.60;;;;;;;;;;5016832;28;20399;-66
2021/09/05 10:40:50;;;;;;;8.37;5.50;;;;;;;;;;5015508;28;20467;-66
2021/09/05 10:43:17;;;;;;;6.40;5.10;;;;;;;;;;5016478;28;20434;-66
2021/09/05 10:45:48;;;;;;;7.30;5.07;;;;;;;;;;5015348;28;20546;-66
2021/09/05 10:48:33;;;;;;;7.60;5.27;;;;;;;;;;5015527;28;20501;-66
2021/09/05 10:51:19;;;;;;;6.00;4.83;;;;;;;;;;5015435;28;20458;-66
2021/09/05 10:54:11;;;;;;;7.53;5.53;;;;;;;;;;5016209;28;20443;-66
2021/09/05 10:56:37;;;;;;;6.37;5.20;;;;;;;;;;5013536;28;20892;-70
2021/09/05 10:59:03;;;;;;;6.40;4.90;;;;;;;;;;5016423;28;20803;-67
2021/09/05 11:01:48;;;;;;;6.93;4.93;;;;;;;;;;5015184;28;20769;-68
2021/09/05 11:04:17;;;;;;;7.00;5.30;;;;;;;;;;4997393;28;20414;-67
2021/09/05 11:06:43;;;;;;;7.07;5.63;;;;;;;;;;5015986;28;20491;-68
2021/09/05 11:09:18;;;;;;;6.10;4.80;;;;;;;;;;5015027;28;20455;-67
2021/09/05 11:11:54;;;;;;;8.63;4.67;;;;;;;;;;4996541;28;20461;-68
2021/09/05 11:14:41;;;;;;;6.87;4.80;;;;;;;;;;4979269;28;20492;-67
2021/09/05 11:17:09;;;;;;;4.60;3.50;;;;;;;;;;4996140;28;20789;-68
2021/09/05 11:19:36;;;;;;;6.73;4.77;;;;;;;;;;4998770;28;20519;-67
2021/09/05 11:22:05;;;;;;;7.80;4.90;;;;;;;;;;5014793;28;20431;-67
2021/09/05 11:24:31;;;;;;;5.97;4.83;;;;;;;;;;5011291;28;20422;-68
2021/09/05 11:27:01;;;;;;;8.50;5.40;;;;;;;;;;5015611;28;20478;-68
2021/09/05 11:29:27;;;;;;;6.50;4.20;;;;;;;;;;4996857;28;20443;-68
2021/09/05 11:32:20;;;;;;;5.30;4.50;;;;;;;;;;5015448;28;20423;-68
2021/09/05 11:34:54;;;;;;;6.83;4.67;;;;;;;;;;5011745;28;20514;-68
2021/09/05 11:37:29;;;;;;;6.23;5.13;;;;;;;;;;5015763;28;20755;-68
2021/09/05 11:39:56;;;;;;;5.67;4.67;;;;;;;;;;5010948;28;20420;-68
2021/09/05 11:42:22;;;;;;;6.73;4.90;;;;;;;;;;4996016;28;20436;-68
2021/09/05 11:44:48;;;;;;;4.77;3.93;;;;;;;;;;4997965;28;20435;-68
2021/09/05 11:47:17;;;;;;;7.17;5.13;;;;;;;;;;5015518;28;20468;-68
2021/09/05 11:49:47;;;;;;;5.67;4.67;;;;;;;;;;5014174;28;20543;-68
2021/09/05 11:52:18;;;;;;;6.00;4.57;;;;;;;;;;5037493;23;20507;-66
2021/09/05 11:54:47;;;;;;;7.03;4.60;;;;;;;;;;5010855;28;20435;-66
2021/09/05 11:57:13;;;;;;;4.30;3.67;;;;;;;;;;5014198;28;20937;-66
2021/09/05 11:59:40;;;;;;;7.60;5.10;;;;;;;;;;5014807;28;20400;-68
2021/09/05 12:02:06;;;;;;;5.47;4.60;;;;;;;;;;5028892;28;20458;-66
2021/09/05 12:04:32;;;;;;;6.50;4.43;;;;;;;;;;5034327;28;20402;-66
2021/09/05 12:06:58;;;;;;;6.27;4.27;;;;;;;;;;5003741;28;20421;-66
2021/09/05 12:09:28;;;;;;;6.23;4.50;;;;;;;;;;4994648;28;20539;-66
2021/09/05 12:11:58;;;;;;;5.40;4.60;;;;;;;;;;4991629;28;20435;-66
2021/09/05 12:14:31;;;;;;;7.57;4.93;;;;;;;;;;5014330;28;20424;-66
2021/09/05 12:16:57;;;;;;;5.70;4.40;;;;;;;;;;5027177;28;20458;-66
2021/09/05 12:19:24;;;;;;;5.87;4.80;;;;;;;;;;5016125;28;20415;-66
2021/09/05 12:21:57;;;;;;;6.30;5.00;;;;;;;;;;5030675;28;20426;-66
2021/09/05 12:24:24;;;;;;;6.40;4.90;;;;;;;;;;5033740;28;20403;-66
2021/09/05 12:26:50;;;;;;;5.50;3.63;;;;;;;;;;4998601;28;20439;-66
2021/09/05 12:29:30;;;;;;;6.63;4.53;;;;;;;;;;4994316;28;20886;-66
2021/09/05 12:32:00;;;;;;;5.37;4.53;;;;;;;;;;5007689;28;20430;-66
2021/09/05 12:34:36;;;;;;;6.20;4.30;;;;;;;;;;5014407;28;20525;-66
2021/09/05 12:37:10;;;;;;;6.33;4.40;;;;;;;;;;5026923;28;20932;-66
2021/09/05 12:39:36;;;;;;;7.47;4.30;;;;;;;;;;5033983;28;20859;-66
2021/09/05 12:42:12;;;;;;;5.27;3.70;;;;;;;;;;5016698;28;20432;-66
2021/09/05 12:44:41;;;;;;;5.83;4.20;;;;;;;;;;5013654;28;20477;-67
2021/09/05 12:47:07;;;;;;;5.43;4.13;;;;;;;;;;4998983;28;20424;-66
2021/09/05 12:49:39;;;;;;;4.80;3.70;;;;;;;;;;4994080;28;20507;-66
2021/09/05 12:52:06;;;;;;;6.00;4.13;;;;;;;;;;5020422;28;20481;-66
2021/09/05 12:54:38;;;;;;;6.00;4.00;;;;;;;;;;5033234;28;20458;-66
2021/09/05 12:57:05;;;;;;;4.83;3.90;;;;;;;;;;5017741;28;20831;-66
2021/09/05 12:59:31;;;;;;;6.00;4.47;;;;;;;;;;5013432;28;20400;-66
2021/09/05 13:01:57;;;;;;;5.47;4.30;;;;;;;;;;5024487;28;20476;-66
2021/09/05 13:04:23;;;;;;;4.93;3.77;;;;;;;;;;4994940;28;20474;-66
2021/09/05 13:06:50;;;;;;;5.47;3.80;;;;;;;;;;4993045;28;20470;-67
2021/09/05 13:09:16;;;;;;;5.83;4.00;;;;;;;;;;4998181;28;20866;-66
2021/09/05 13:11:47;;;;;;;6.50;3.60;;;;;;;;;;5011266;28;20668;-66
2021/09/05 13:14:14;;;;;;;7.63;4.57;;;;;;;;;;5032910;28;20395;-66
2021/09/05 13:16:40;;;;;;;4.57;3.40;;;;;;;;;;5022442;28;20562;-66
2021/09/05 13:19:06;;;;;;;5.03;3.97;;;;;;;;;;5013437;28;20446;-66
2021/09/05 13:21:32;;;;;;;5.60;4.00;;;;;;;;;;5019846;28;20881;-66
2021/09/05 13:23:58;;;;;;;5.13;3.90;;;;;;;;;;5032799;28;20512;-66
2021/09/05 13:26:24;;;;;;;6.77;4.77;;;;;;;;;;5024605;28;20459;-66
2021/09/05 13:28:52;;;;;;;6.20;4.60;;;;;;;;;;5013012;28;20410;-66
2021/09/05 13:31:19;;;;;;;5.70;4.33;;;;;;;;;;5017567;28;20776;-66
2021/09/05 13:33:45;;;;;;;6.37;4.87;;;;;;;;;;5014909;28;20426;-66
2021/09/05 13:36:11;;;;;;;6.73;4.47;;;;;;;;;;5029137;28;20418;-66
2021/09/05 13:38:37;;;;;;;6.60;4.70;;;;;;;;;;5032605;28;20837;-71
2021/09/05 13:41:03;;;;;;;6.80;4.90;;;;;;;;;;5027067;28;20431;-66
2021/09/05 13:43:29;;;;;;;4.83;4.00;;;;;;;;;;5012670;28;20482;-66
2021/09/05 13:45:55;;;;;;;6.20;4.80;;;;;;;;;;5011858;28;20908;-66
2021/09/05 13:48:21;;;;;;;5.00;3.80;;;;;;;;;;5012827;28;20410;-66
2021/09/05 13:50:48;;;;;;;6.13;4.83;;;;;;;;;;5012393;28;20530;-67
2021/09/05 13:53:14;;;;;;;7.63;5.30;;;;;;;;;;5032447;28;20438;-66
2021/09/05 13:55:40;;;;;;;6.93;4.30;;;;;;;;;;5032458;28;20478;-66
2021/09/05 13:58:06;;;;;;;7.20;4.20;;;;;;;;;;4993772;28;20420;-66
2021/09/05 14:00:32;;;;;;;6.00;4.37;;;;;;;;;;4993495;28;20404;-66
2021/09/05 14:02:59;;;;;;;9.73;4.63;;;;;;;;;;5010714;28;20458;-66
2021/09/05 14:05:25;;;;;;;8.30;5.03;;;;;;;;;;5012890;28;20399;-66
2021/09/05 14:07:51;;;;;;;6.00;4.93;;;;;;;;;;5028152;28;20513;-66
2021/09/05 14:10:17;;;;;;;5.37;4.33;;;;;;;;;;5022331;28;20598;-66
2021/09/05 14:12:43;;;;;;;6.80;5.07;;;;;;;;;;5010733;28;20447;-66
2021/09/05 14:15:09;;;;;;;5.90;4.47;;;;;;;;;;5012490;28;20770;-66
2021/09/05 14:17:35;;;;;;;6.63;4.20;;;;;;;;;;5012666;28;20427;-66
2021/09/05 14:20:01;;;;;;;5.47;3.77;;;;;;;;;;5011502;28;20951;-66
2021/09/05 14:22:27;;;;;;;7.47;4.57;;;;;;;;;;5010315;28;20488;-66
2021/09/05 14:24:53;;;;;;;5.87;4.37;;;;;;;;;;5012508;28;20423;-67
2021/09/05 14:27:24;;;;;;;5.50;4.07;;;;;;;;;;5005049;28;20439;-66
2021/09/05 14:29:58;;;;;;;9.83;4.73;;;;;;;;;;4993372;28;20526;-66
2021/09/05 14:32:36;;;;;;;6.73;4.07;;;;;;;;;;5007500;28;20508;-66
2021/09/05 14:48:41;;;;;;;6.57;3.97;;;;;;;;;;5003853;28;20481;-66
2021/09/05 14:56:21;;;;;;;5.40;4.20;;;;;;;;;;5016047;28;20403;-67